Time;durP1;ratioP1;P1;durP2;ratioP2;P2;SDS_P1;SDS_P2;PMS_P1;PMS_P2;Temp;Humidity;BMP_temperature;BMP_pressure;BME280_temperature;BME280_humidity;BME280_pressure;Samples;Min_cycle;Max_cycle;Signal;HPM_P1;HPM_P2
2023/04/07 00:00:30;;;;;;;6.83;6.23;;;;;;;9.61;76.98;98729.34;5047570;27;102853;-57
2023/04/07 00:03:01;;;;;;;8.17;7.37;;;;;;;9.73;76.79;98733.78;5054962;27;103472;-57
2023/04/07 00:05:29;;;;;;;8.20;7.10;;;;;;;9.78;76.81;98726.41;5032926;27;103155;-57
2023/04/07 00:07:57;;;;;;;7.50;6.80;;;;;;;9.60;77.33;98727.63;5052443;27;102653;-57
2023/04/07 00:10:26;;;;;;;7.90;7.13;;;;;;;9.71;76.81;98722.47;5037070;27;103939;-57
2023/04/07 00:12:53;;;;;;;7.53;6.63;;;;;;;9.73;77.29;98717.09;5055468;27;104407;-57
2023/04/07 00:15:21;;;;;;;7.83;7.00;;;;;;;9.59;78.46;98715.41;5050632;27;103990;-57
2023/04/07 00:17:51;;;;;;;8.97;7.13;;;;;;;9.56;78.78;98712.13;5051066;27;102992;-57
2023/04/07 00:20:19;;;;;;;7.60;6.80;;;;;;;9.61;78.67;98707.38;5054272;27;103883;-57
2023/04/07 00:22:48;;;;;;;7.33;6.37;;;;;;;9.68;77.56;98698.13;5055362;27;104133;-57
2023/04/07 00:25:16;;;;;;;7.60;6.73;;;;;;;9.61;79.19;98696.81;5055421;27;103021;-57
2023/04/07 00:27:44;;;;;;;7.23;6.53;;;;;;;9.61;78.64;98689.78;5062310;27;103071;-57
2023/04/07 00:30:14;;;;;;;6.67;5.97;;;;;;;9.60;78.83;98695.97;5055317;27;103812;-57
2023/04/07 00:32:42;;;;;;;8.03;5.83;;;;;;;9.71;77.44;98687.34;5051720;27;103247;-56
2023/04/07 00:35:13;;;;;;;6.60;6.00;;;;;;;9.75;77.56;98687.03;5055450;27;103323;-57
2023/04/07 00:37:41;;;;;;;7.93;5.97;;;;;;;9.75;77.39;98684.38;5035508;27;103936;-57
2023/04/07 00:40:10;;;;;;;6.87;6.20;;;;;;;9.82;76.77;98684.81;5044348;27;103046;-57
2023/04/07 00:42:38;;;;;;;6.53;5.57;;;;;;;9.79;77.50;98674.47;5033473;27;103432;-57
2023/04/07 00:45:08;;;;;;;8.23;7.00;;;;;;;9.65;78.15;98685.13;5037546;27;103219;-57
2023/04/07 00:47:39;;;;;;;9.90;6.83;;;;;;;9.47;79.30;98683.75;5042347;27;102776;-56
2023/04/07 00:50:09;;;;;;;7.63;6.30;;;;;;;9.49;78.32;98674.78;5058394;27;102702;-56
2023/04/07 00:52:40;;;;;;;7.30;6.50;;;;;;;9.44;79.13;98671.59;5051261;27;103001;-57
2023/04/07 00:55:09;;;;;;;5.90;5.30;;;;;;;9.25;79.23;98676.44;5031595;27;104235;-57
2023/04/07 00:57:37;;;;;;;7.93;6.20;;;;;;;9.14;80.17;98663.13;5036479;27;102676;-57
2023/04/07 01:00:08;;;;;;;7.87;5.73;;;;;;;8.99;80.64;98661.50;5051029;27;102635;-56
2023/04/07 01:02:41;;;;;;;7.27;6.13;;;;;;;9.07;80.47;98659.22;5056596;27;104010;-57
2023/04/07 01:05:15;;;;;;;6.67;6.07;;;;;;;8.74;81.94;98660.50;5034926;27;103066;-56
2023/04/07 01:07:58;;;;;;;6.23;5.20;;;;;;;8.85;81.24;98648.41;5053650;27;102913;-57
2023/04/07 01:10:35;;;;;;;5.90;5.30;;;;;;;8.98;80.71;98651.94;5038508;27;102899;-57
2023/04/07 01:13:22;;;;;;;6.13;5.53;;;;;;;9.00;80.99;98655.31;5038559;27;105179;-57
2023/04/07 01:15:56;;;;;;;6.30;5.70;;;;;;;9.10;80.69;98643.19;5026775;27;103191;-57
2023/04/07 01:18:32;;;;;;;7.03;5.60;;;;;;;9.12;80.54;98646.59;5030295;27;102658;-57
2023/04/07 01:21:04;;;;;;;6.57;5.97;;;;;;;9.07;80.48;98643.41;5037544;27;102651;-57
2023/04/07 01:23:59;;;;;;;7.27;5.77;;;;;;;9.19;80.02;98634.66;5034097;27;105208;-57
2023/04/07 01:26:29;;;;;;;5.13;4.50;;;;;;;9.22;80.02;98632.69;5041239;27;103024;-56
2023/04/07 01:29:35;;;;;;;7.57;6.00;;;;;;;9.08;80.46;98629.28;5035619;27;102866;-56
2023/04/07 01:32:07;;;;;;;6.57;5.87;;;;;;;9.05;80.99;98624.22;5034202;27;104073;-57
2023/04/07 01:34:38;;;;;;;6.03;5.43;;;;;;;9.22;79.98;98618.66;5043434;27;104331;-56
2023/04/07 01:37:09;;;;;;;8.40;6.13;;;;;;;8.97;80.74;98627.38;5042160;27;103271;-57
2023/04/07 01:39:39;;;;;;;6.40;5.80;;;;;;;9.15;80.02;98620.84;5059230;27;102592;-56
2023/04/07 01:42:09;;;;;;;8.30;5.80;;;;;;;9.05;80.74;98626.84;5056094;27;102681;-56
2023/04/07 01:44:39;;;;;;;6.97;6.27;;;;;;;9.13;79.78;98611.38;5055108;27;102886;-56
2023/04/07 01:47:07;;;;;;;6.43;5.40;;;;;;;9.16;79.84;98613.78;5057272;27;103197;-56
2023/04/07 01:49:37;;;;;;;6.13;4.90;;;;;;;9.27;79.62;98613.91;5046744;27;102563;-56
2023/04/07 01:52:06;;;;;;;6.03;5.50;;;;;;;9.09;80.10;98607.25;5031082;27;102889;-57
2023/04/07 01:54:35;;;;;;;8.37;5.97;;;;;;;9.04;79.95;98602.28;5048339;27;103254;-57
2023/04/07 01:57:03;;;;;;;6.73;6.03;;;;;;;8.96;80.31;98609.00;5032004;27;103208;-56
2023/04/07 01:59:32;;;;;;;6.73;6.03;;;;;;;9.03;80.16;98600.63;5035496;27;104498;-56
2023/04/07 02:02:03;;;;;;;6.50;5.90;;;;;;;9.16;80.02;98598.81;5027689;27;103314;-57
2023/04/07 02:04:39;;;;;;;7.17;6.23;;;;;;;9.04;80.01;98612.00;5027344;27;103260;-56
2023/04/07 02:07:11;;;;;;;6.97;6.27;;;;;;;9.06;80.02;98604.84;5034618;27;103151;-56
2023/04/07 02:09:46;;;;;;;7.10;6.40;;;;;;;9.15;80.01;98604.22;5033004;27;103173;-56
2023/04/07 02:12:16;;;;;;;7.30;6.47;;;;;;;8.97;80.39;98600.19;5050927;27;102785;-56
2023/04/07 02:14:58;;;;;;;5.30;4.80;;;;;;;9.09;80.44;98599.34;5021716;27;105318;-56
2023/04/07 02:17:29;;;;;;;7.23;6.30;;;;;;;9.02;80.50;98592.78;5054634;27;103079;-56
2023/04/07 02:20:01;;;;;;;6.90;6.20;;;;;;;8.99;80.59;98593.84;5046847;27;103714;-56
2023/04/07 02:22:29;;;;;;;6.47;5.37;;;;;;;8.86;80.98;98598.28;5047622;27;103914;-56
2023/04/07 02:24:58;;;;;;;7.53;6.77;;;;;;;9.08;80.19;98587.97;5049187;27;104328;-57
2023/04/07 02:27:27;;;;;;;7.20;6.00;;;;;;;9.10;80.24;98586.06;5031631;27;103248;-58
2023/04/07 02:29:55;;;;;;;7.50;6.80;;;;;;;9.10;80.43;98579.94;5029814;27;102991;-57
2023/04/07 02:32:23;;;;;;;8.07;6.57;;;;;;;9.18;79.54;98582.91;5034373;27;104068;-57
2023/04/07 02:34:53;;;;;;;7.77;6.00;;;;;;;9.31;78.72;98583.75;5058280;27;104077;-57
2023/04/07 02:37:21;;;;;;;8.27;7.03;;;;;;;9.07;80.40;98585.41;5033395;27;103287;-57
2023/04/07 02:39:49;;;;;;;6.90;5.90;;;;;;;9.19;79.50;98585.44;5057273;27;103097;-57
2023/04/07 02:42:20;;;;;;;8.10;6.27;;;;;;;9.10;79.72;98579.94;5053694;27;103546;-56
2023/04/07 02:44:49;;;;;;;6.53;5.93;;;;;;;9.25;79.60;98573.63;5051346;27;103780;-57
2023/04/07 02:47:17;;;;;;;8.83;6.67;;;;;;;9.04;80.30;98569.84;5036355;27;103242;-57
2023/04/07 02:49:45;;;;;;;7.33;6.53;;;;;;;9.18;79.89;98569.72;5041742;27;103197;-57
2023/04/07 02:52:15;;;;;;;7.90;6.00;;;;;;;9.12;79.82;98573.63;5035452;27;103147;-57
2023/04/07 02:54:43;;;;;;;7.90;6.00;;;;;;;9.21;79.63;98566.88;5048003;27;104234;-57
2023/04/07 02:57:12;;;;;;;7.93;6.83;;;;;;;9.12;80.03;98570.16;5029210;27;105311;-57
2023/04/07 02:59:41;;;;;;;8.87;7.17;;;;;;;9.24;79.85;98566.66;5047120;27;102818;-57
2023/04/07 03:02:11;;;;;;;8.07;6.37;;;;;;;9.28;79.17;98562.88;5029446;27;102755;-56
2023/04/07 03:04:40;;;;;;;8.50;6.43;;;;;;;9.24;79.38;98556.13;5023934;27;103017;-57
2023/04/07 03:07:08;;;;;;;8.27;5.97;;;;;;;9.30;78.93;98546.00;5032172;27;102976;-56
2023/04/07 03:09:38;;;;;;;7.77;6.87;;;;;;;9.41;78.62;98547.88;5032698;27;102705;-57
2023/04/07 03:12:06;;;;;;;9.40;7.13;;;;;;;9.25;78.93;98547.28;5032456;27;103019;-57
2023/04/07 03:14:36;;;;;;;7.57;6.30;;;;;;;9.32;79.01;98545.88;5031154;27;103341;-57
2023/04/07 03:17:07;;;;;;;7.80;6.60;;;;;;;9.18;79.01;98553.91;5030694;27;103693;-57
2023/04/07 03:19:36;;;;;;;8.13;6.70;;;;;;;9.20;79.49;98554.66;5035211;27;102650;-57
2023/04/07 03:22:04;;;;;;;9.17;7.90;;;;;;;9.30;79.17;98542.50;5034313;27;102621;-57
2023/04/07 03:24:38;;;;;;;8.27;7.40;;;;;;;9.19;78.99;98547.69;5034064;27;104484;-57
2023/04/07 03:27:08;;;;;;;7.97;7.17;;;;;;;9.11;79.98;98544.75;5036416;27;105415;-57
2023/04/07 03:29:42;;;;;;;8.90;8.00;;;;;;;8.98;79.85;98538.63;5037939;27;102775;-57
2023/04/07 03:32:14;;;;;;;10.27;7.77;;;;;;;9.00;79.87;98542.00;5048160;27;102756;-56
2023/04/07 03:34:42;;;;;;;7.90;7.10;;;;;;;9.08;79.80;98534.41;5048901;27;104417;-57
2023/04/07 03:37:14;;;;;;;8.80;7.77;;;;;;;9.13;79.73;98540.19;5050476;27;102979;-57
2023/04/07 03:39:42;;;;;;;9.47;7.10;;;;;;;9.33;78.82;98535.25;5035812;27;102984;-57
2023/04/07 03:42:31;;;;;;;6.90;6.03;;;;;;;9.45;77.66;98536.19;5034498;27;102890;-57
2023/04/07 03:45:03;;;;;;;8.37;6.10;;;;;;;9.48;77.89;98538.59;5032991;27;103560;-57
2023/04/07 03:47:34;;;;;;;8.57;7.30;;;;;;;9.41;77.96;98532.06;5030792;27;105331;-56
2023/04/07 03:50:05;;;;;;;7.83;7.03;;;;;;;9.44;78.12;98529.22;5030865;27;102816;-57
2023/04/07 03:52:41;;;;;;;9.47;6.57;;;;;;;9.45;78.15;98533.53;5036265;27;103878;-57
2023/04/07 03:55:20;;;;;;;8.13;6.80;;;;;;;9.50;77.65;98528.78;5031831;27;104558;-58
2023/04/07 03:57:52;;;;;;;6.90;6.20;;;;;;;9.46;78.35;98529.13;5033172;27;103223;-57
2023/04/07 04:00:23;;;;;;;8.83;7.00;;;;;;;9.42;78.26;98525.84;5033157;27;102826;-57
2023/04/07 04:03:04;;;;;;;7.13;6.30;;;;;;;9.32;78.14;98523.00;5037275;27;103867;-58
2023/04/07 04:05:34;;;;;;;8.67;7.80;;;;;;;9.25;79.30;98518.28;5032743;27;103208;-57
2023/04/07 04:08:03;;;;;;;9.63;7.23;;;;;;;9.29;78.82;98523.22;5042852;27;103407;-58
2023/04/07 04:10:34;;;;;;;9.47;7.87;;;;;;;9.27;78.84;98521.63;5031166;27;102696;-58
2023/04/07 04:13:06;;;;;;;8.13;6.87;;;;;;;9.36;78.42;98518.38;5041117;27;102980;-57
2023/04/07 04:15:35;;;;;;;7.63;6.83;;;;;;;9.36;78.48;98518.38;5060508;27;104176;-58
2023/04/07 04:18:07;;;;;;;7.67;6.97;;;;;;;9.41;78.12;98513.59;5038540;27;103212;-58
2023/04/07 04:20:36;;;;;;;7.60;6.80;;;;;;;9.39;77.85;98515.53;5056543;27;102739;-58
2023/04/07 04:23:06;;;;;;;8.20;7.33;;;;;;;9.31;77.67;98513.44;5032910;27;103118;-58
2023/04/07 04:25:35;;;;;;;8.17;6.27;;;;;;;9.31;77.99;98512.56;5043321;27;104348;-58
2023/04/07 04:28:07;;;;;;;7.63;6.20;;;;;;;9.41;77.58;98503.06;5040751;27;103373;-58
2023/04/07 04:30:37;;;;;;;6.93;6.07;;;;;;;9.38;77.64;98500.63;5056540;27;102693;-58
2023/04/07 04:33:05;;;;;;;7.90;7.03;;;;;;;9.39;77.61;98512.88;5054402;27;102675;-58
2023/04/07 04:35:42;;;;;;;7.97;6.50;;;;;;;9.49;77.71;98507.81;5042807;27;103251;-67
2023/04/07 04:38:14;;;;;;;8.20;6.53;;;;;;;9.54;76.83;98510.97;5037291;27;103445;-67
2023/04/07 04:40:48;;;;;;;7.50;6.60;;;;;;;9.57;76.87;98505.47;5037327;27;103635;-67
2023/04/07 04:43:20;;;;;;;6.73;6.03;;;;;;;9.52;76.95;98512.84;5033931;27;103179;-67
2023/04/07 04:45:50;;;;;;;8.80;7.17;;;;;;;9.47;77.23;98515.81;5036661;27;103609;-67
2023/04/07 04:48:22;;;;;;;8.27;6.40;;;;;;;9.50;77.18;98520.03;5042078;27;105129;-67
2023/04/07 04:50:50;;;;;;;9.90;7.30;;;;;;;9.57;76.43;98506.28;5037859;27;102718;-67
2023/04/07 04:53:18;;;;;;;9.37;7.73;;;;;;;9.50;77.16;98512.97;5032991;27;102704;-67
2023/04/07 04:55:52;;;;;;;8.17;7.20;;;;;;;9.57;76.83;98513.38;5050818;27;103253;-67
2023/04/07 04:58:39;;;;;;;8.00;7.20;;;;;;;9.49;76.82;98513.91;5050706;27;103211;-67
2023/04/07 05:01:07;;;;;;;9.57;7.33;;;;;;;9.54;76.57;98517.09;5043705;27;102650;-66
2023/04/07 05:03:41;;;;;;;9.00;6.73;;;;;;;9.52;76.78;98518.97;5034575;27;102715;-67
2023/04/07 05:06:18;;;;;;;6.57;5.77;;;;;;;9.54;76.30;98513.59;5054188;27;104383;-67
2023/04/07 05:08:48;;;;;;;9.20;8.03;;;;;;;9.56;76.58;98519.59;5032456;27;103239;-67
2023/04/07 05:11:20;;;;;;;6.73;5.80;;;;;;;9.61;76.48;98515.69;5037718;27;102790;-67
2023/04/07 05:13:53;;;;;;;9.00;7.80;;;;;;;9.61;76.79;98523.59;5043666;27;104275;-68
2023/04/07 05:16:21;;;;;;;6.20;5.60;;;;;;;9.63;76.96;98520.84;5032555;27;103337;-67
2023/04/07 05:18:49;;;;;;;7.40;6.60;;;;;;;9.63;76.58;98521.69;5039585;27;102974;-67
2023/04/07 05:21:19;;;;;;;8.77;7.27;;;;;;;9.39;77.52;98518.16;5033897;27;102618;-67
2023/04/07 05:23:47;;;;;;;8.43;7.53;;;;;;;9.33;77.41;98519.44;5050758;27;103835;-67
2023/04/07 05:26:21;;;;;;;9.23;7.83;;;;;;;9.07;79.77;98514.25;5039442;27;105448;-67
2023/04/07 05:28:51;;;;;;;9.80;8.73;;;;;;;8.86;81.06;98523.66;5046311;27;106199;-67
2023/04/07 05:31:24;;;;;;;9.33;8.30;;;;;;;8.70;81.84;98524.69;5034029;27;102958;-67
2023/04/07 05:33:56;;;;;;;10.17;8.90;;;;;;;8.72;82.60;98522.81;5036966;27;102649;-67
2023/04/07 05:36:28;;;;;;;12.10;8.87;;;;;;;8.83;82.54;98523.84;5038136;27;103370;-67
2023/04/07 05:38:57;;;;;;;10.60;9.30;;;;;;;9.00;81.66;98526.19;5037061;27;103152;-68
2023/04/07 05:41:26;;;;;;;10.43;8.17;;;;;;;9.05;80.96;98524.91;5038706;27;102677;-67
2023/04/07 05:43:55;;;;;;;9.30;7.90;;;;;;;8.96;81.89;98520.28;5035651;27;102988;-67
2023/04/07 05:46:24;;;;;;;10.50;8.60;;;;;;;8.92;83.03;98523.25;5037259;27;104069;-67
2023/04/07 05:48:56;;;;;;;11.17;8.13;;;;;;;9.00;81.96;98520.91;5032885;27;103654;-67
2023/04/07 05:51:30;;;;;;;9.70;8.33;;;;;;;8.98;82.46;98522.81;5063548;27;102686;-67
2023/04/07 05:54:02;;;;;;;9.33;8.13;;;;;;;9.22;81.30;98515.84;5037299;27;102826;-66
2023/04/07 05:56:31;;;;;;;9.00;7.50;;;;;;;9.34;80.47;98515.00;5038497;27;103214;-67
2023/04/07 05:59:00;;;;;;;9.37;8.37;;;;;;;8.86;82.18;98518.38;5038989;27;103909;-66
2023/04/07 06:01:32;;;;;;;11.37;8.97;;;;;;;8.86;83.78;98521.88;5054014;27;102866;-67
2023/04/07 06:04:02;;;;;;;10.17;8.67;;;;;;;9.05;82.73;98526.72;5039020;27;102843;-67
2023/04/07 06:06:30;;;;;;;7.53;6.73;;;;;;;9.07;83.73;98528.28;5042315;27;103205;-67
2023/04/07 06:08:58;;;;;;;7.37;6.63;;;;;;;9.40;81.84;98519.00;5041014;27;103232;-67
2023/04/07 06:11:27;;;;;;;8.90;7.40;;;;;;;9.54;80.93;98525.00;5042129;27;102707;-68
2023/04/07 06:13:54;;;;;;;9.93;8.93;;;;;;;9.41;80.06;98523.31;5040138;27;103789;-67
2023/04/07 06:16:23;;;;;;;9.90;8.90;;;;;;;9.27;81.56;98521.63;5033579;27;103248;-67
2023/04/07 06:18:53;;;;;;;9.63;8.50;;;;;;;8.82;83.60;98522.16;5044059;27;103206;-67
2023/04/07 06:21:22;;;;;;;10.60;9.43;;;;;;;9.00;83.30;98531.47;5053257;27;102912;-67
2023/04/07 06:23:50;;;;;;;10.20;8.93;;;;;;;8.48;86.08;98534.97;5029020;27;103054;-67
2023/04/07 06:26:20;;;;;;;11.10;9.63;;;;;;;8.86;85.66;98534.19;5045468;27;103254;-67
2023/04/07 06:28:48;;;;;;;9.20;7.83;;;;;;;8.89;85.83;98524.28;5036681;27;103317;-67
2023/04/07 06:31:17;;;;;;;10.13;9.03;;;;;;;8.86;85.38;98528.91;5035227;27;102822;-67
2023/04/07 06:33:46;;;;;;;10.37;9.17;;;;;;;9.09;84.74;98536.97;5038721;27;103736;-67
2023/04/07 06:36:17;;;;;;;13.20;10.97;;;;;;;9.00;85.57;98531.47;5034533;27;103386;-67
2023/04/07 06:38:45;;;;;;;13.17;10.23;;;;;;;9.22;84.86;98532.50;5032730;27;103676;-67
2023/04/07 06:41:15;;;;;;;10.83;9.73;;;;;;;9.36;81.99;98528.06;5051907;27;102682;-67
2023/04/07 06:43:45;;;;;;;11.87;9.70;;;;;;;9.53;80.86;98531.22;5052906;27;102934;-67
2023/04/07 06:46:13;;;;;;;8.57;7.70;;;;;;;9.74;80.13;98534.94;5055364;27;103569;-68
2023/04/07 06:48:41;;;;;;;11.10;8.70;;;;;;;9.85;79.94;98524.47;5050225;27;103817;-66
2023/04/07 06:51:09;;;;;;;9.97;8.43;;;;;;;9.97;78.79;98520.09;5049220;27;102627;-67
2023/04/07 06:53:40;;;;;;;9.00;8.10;;;;;;;9.94;78.37;98520.31;5060284;27;103735;-67
2023/04/07 06:56:10;;;;;;;9.50;8.40;;;;;;;10.15;78.46;98523.25;5056196;27;103311;-67
2023/04/07 06:58:38;;;;;;;10.40;9.00;;;;;;;9.99;78.56;98522.66;5046768;27;103205;-67
2023/04/07 07:01:06;;;;;;;9.87;8.77;;;;;;;9.97;78.56;98520.09;5040142;27;102754;-67
2023/04/07 07:03:35;;;;;;;10.50;9.33;;;;;;;9.90;77.80;98521.50;5049300;27;104314;-67
2023/04/07 07:06:03;;;;;;;9.87;8.63;;;;;;;9.84;79.85;98520.16;5042766;27;103315;-67
2023/04/07 07:08:32;;;;;;;9.10;8.20;;;;;;;10.13;78.25;98525.16;5036123;27;103195;-67
2023/04/07 07:11:01;;;;;;;10.47;8.93;;;;;;;10.32;77.30;98526.34;5065283;27;102688;-67
2023/04/07 07:13:30;;;;;;;8.27;7.47;;;;;;;10.33;76.84;98521.91;5035943;27;102876;-67
2023/04/07 07:16:00;;;;;;;10.10;8.87;;;;;;;10.26;76.27;98520.66;5043560;27;102680;-67
2023/04/07 07:18:29;;;;;;;10.33;8.90;;;;;;;10.29;77.07;98520.44;5043399;27;103620;-67
2023/04/07 07:20:59;;;;;;;10.73;9.43;;;;;;;10.31;75.17;98518.50;5049717;27;102654;-67
2023/04/07 07:23:27;;;;;;;10.63;9.53;;;;;;;10.24;75.46;98517.28;5058471;27;103522;-67
2023/04/07 07:25:57;;;;;;;10.63;9.13;;;;;;;10.44;75.01;98519.31;5047613;27;104427;-67
2023/04/07 07:28:28;;;;;;;8.27;7.27;;;;;;;10.51;75.48;98517.88;5045974;27;103200;-66
2023/04/07 07:30:57;;;;;;;8.97;7.30;;;;;;;10.66;76.08;98524.66;5050451;27;102817;-67
2023/04/07 07:33:26;;;;;;;7.63;6.83;;;;;;;10.77;74.63;98524.69;5046932;27;103276;-66
2023/04/07 07:35:55;;;;;;;11.87;9.30;;;;;;;10.39;74.62;98526.69;5046991;27;102757;-66
2023/04/07 07:38:23;;;;;;;8.07;7.27;;;;;;;11.20;74.26;98529.34;5047853;27;102648;-67
2023/04/07 07:40:54;;;;;;;8.97;7.90;;;;;;;11.27;72.83;98519.97;5028887;27;104126;-66
2023/04/07 07:43:24;;;;;;;8.27;7.47;;;;;;;11.44;72.71;98527.41;5027125;27;102811;-67
2023/04/07 07:45:54;;;;;;;9.53;8.13;;;;;;;11.85;70.51;98527.66;5051449;27;103524;-67
2023/04/07 07:48:24;;;;;;;7.63;6.87;;;;;;;12.64;66.68;98523.78;5035416;27;102901;-65
2023/04/07 07:50:55;;;;;;;10.07;9.07;;;;;;;12.17;68.42;98523.25;5034272;27;104480;-66
2023/04/07 07:53:25;;;;;;;10.27;8.87;;;;;;;12.47;68.92;98519.88;5055246;27;103873;-66
2023/04/07 07:55:54;;;;;;;10.37;8.90;;;;;;;12.52;67.08;98522.19;5048777;27;104003;-66
2023/04/07 07:58:23;;;;;;;9.10;8.20;;;;;;;12.72;66.56;98523.97;5037459;27;103403;-65
2023/04/07 08:00:51;;;;;;;10.67;8.63;;;;;;;13.18;64.46;98519.19;5055515;27;103985;-66
2023/04/07 08:03:21;;;;;;;8.63;7.03;;;;;;;14.04;63.33;98518.66;5057076;27;102819;-66
2023/04/07 08:05:51;;;;;;;14.07;9.03;;;;;;;13.83;60.99;98515.25;5046956;27;103197;-65
2023/04/07 08:08:19;;;;;;;8.43;7.53;;;;;;;13.53;60.88;98520.59;5054783;27;103180;-65
2023/04/07 08:10:47;;;;;;;8.20;7.40;;;;;;;13.22;64.67;98517.09;5057884;27;102651;-66
2023/04/07 08:13:15;;;;;;;9.23;7.17;;;;;;;13.40;60.91;98523.47;5054467;27;102864;-66
2023/04/07 08:15:43;;;;;;;8.33;7.50;;;;;;;13.06;64.54;98528.13;5053953;27;103258;-57
2023/04/07 08:18:12;;;;;;;8.13;7.33;;;;;;;13.40;63.93;98526.13;5036963;27;103202;-57
2023/04/07 08:20:43;;;;;;;9.43;8.53;;;;;;;13.16;64.40;98522.94;5055159;27;102922;-56
2023/04/07 08:23:11;;;;;;;7.90;6.57;;;;;;;13.17;63.40;98533.41;5056874;27;103737;-56
2023/04/07 08:25:39;;;;;;;7.73;7.03;;;;;;;13.37;61.07;98531.69;5038668;27;103959;-56
2023/04/07 08:28:08;;;;;;;6.50;5.90;;;;;;;13.65;60.46;98535.44;5054283;27;103275;-57
2023/04/07 08:30:36;;;;;;;7.70;6.90;;;;;;;14.25;59.98;98535.34;5055207;27;102633;-57
2023/04/07 08:33:06;;;;;;;7.83;7.03;;;;;;;13.90;59.24;98534.97;5052029;27;102793;-57
2023/04/07 08:35:36;;;;;;;7.33;6.63;;;;;;;12.91;61.07;98529.44;5036446;27;103203;-56
2023/04/07 08:38:08;;;;;;;7.77;6.63;;;;;;;13.62;59.46;98535.69;5057323;27;103416;-57
2023/04/07 08:40:38;;;;;;;6.80;5.93;;;;;;;14.74;59.64;98537.06;5051589;27;104343;-57
2023/04/07 08:43:09;;;;;;;8.93;7.27;;;;;;;13.49;57.51;98532.44;5055320;27;102759;-57
2023/04/07 08:45:40;;;;;;;7.80;6.37;;;;;;;14.26;57.20;98526.38;5049802;27;104898;-57
2023/04/07 08:48:18;;;;;;;7.30;6.40;;;;;;;14.92;57.45;98534.53;5055155;27;103200;-57
2023/04/07 08:50:46;;;;;;;5.97;5.37;;;;;;;15.05;55.98;98524.41;5052232;27;103095;-57
2023/04/07 08:53:19;;;;;;;7.43;5.50;;;;;;;14.94;56.13;98533.41;5047569;27;103298;-56
2023/04/07 08:55:47;;;;;;;6.57;5.30;;;;;;;15.34;58.37;98530.53;5055852;27;103612;-57
2023/04/07 08:58:17;;;;;;;6.00;5.47;;;;;;;15.67;55.92;98531.84;5053914;27;103298;-56
2023/04/07 09:00:47;;;;;;;7.07;6.20;;;;;;;15.66;55.49;98541.63;5049038;27;102720;-57
2023/04/07 09:03:17;;;;;;;7.10;6.40;;;;;;;15.30;56.35;98526.47;5026854;27;104150;-58
2023/04/07 09:05:46;;;;;;;7.13;6.43;;;;;;;15.66;55.49;98536.31;5048094;27;103185;-57
2023/04/07 09:08:16;;;;;;;6.27;5.57;;;;;;;15.56;54.27;98537.34;5054752;27;103203;-57
2023/04/07 09:10:44;;;;;;;6.20;5.60;;;;;;;16.02;54.73;98536.44;5054134;27;102596;-58
2023/04/07 09:13:12;;;;;;;5.60;5.10;;;;;;;16.38;54.39;98542.66;5023976;27;104671;-58
2023/04/07 09:15:40;;;;;;;6.63;5.97;;;;;;;15.89;56.68;98544.75;5054599;27;103820;-57
2023/04/07 09:18:09;;;;;;;7.40;6.50;;;;;;;16.60;55.04;98543.09;5054756;27;103317;-57
2023/04/07 09:20:57;;;;;;;6.77;6.17;;;;;;;17.31;51.22;98537.66;5048924;27;103736;-57
2023/04/07 09:23:30;;;;;;;6.10;5.60;;;;;;;16.61;52.63;98539.44;5052328;27;102995;-58
2023/04/07 09:26:00;;;;;;;6.50;5.83;;;;;;;17.02;51.66;98532.63;5051236;27;103246;-58
2023/04/07 09:28:42;;;;;;;6.93;6.23;;;;;;;17.98;50.16;98533.38;5045856;27;103226;-58
2023/04/07 09:31:10;;;;;;;6.20;5.60;;;;;;;15.37;55.27;98535.56;5051379;27;102727;-58
2023/04/07 09:33:38;;;;;;;6.43;5.63;;;;;;;16.34;54.06;98535.94;5050534;27;103610;-57
2023/04/07 09:36:07;;;;;;;6.37;5.77;;;;;;;16.80;49.95;98528.63;5056280;27;103351;-57
2023/04/07 09:38:38;;;;;;;7.72;6.93;;;;;;;16.74;51.72;98539.91;5029690;27;103703;-58
2023/04/07 09:41:08;;;;;;;7.25;6.30;;;;;;;15.65;51.64;98545.31;5045241;27;104643;-58
2023/04/07 09:43:37;;;;;;;5.95;5.43;;;;;;;18.02;49.01;98527.53;5053393;27;103122;-57
2023/04/07 09:46:13;;;;;;;6.50;5.55;;;;;;;16.69;49.52;98534.19;5051432;27;104565;-58
2023/04/07 09:48:43;;;;;;;7.25;4.95;;;;;;;15.09;54.23;98541.78;5038212;27;103387;-57
2023/04/07 09:51:13;;;;;;;5.00;4.50;;;;;;;16.93;52.10;98532.69;5031809;27;103145;-58
2023/04/07 09:53:46;;;;;;;5.97;4.57;;;;;;;14.85;52.47;98538.75;5040307;27;103059;-57
2023/04/07 09:56:18;;;;;;;5.40;4.47;;;;;;;15.85;52.46;98529.25;5028554;27;103257;-58
2023/04/07 09:58:50;;;;;;;5.13;4.63;;;;;;;16.15;52.37;98529.78;5052277;27;103195;-58
2023/04/07 10:01:21;;;;;;;5.55;4.30;;;;;;;17.23;48.99;98526.94;5047253;27;102719;-58
2023/04/07 10:03:51;;;;;;;5.95;4.90;;;;;;;15.91;49.93;98531.31;5052755;27;102765;-58
2023/04/07 10:06:22;;;;;;;5.50;4.85;;;;;;;15.17;52.81;98539.25;5047975;27;104060;-58
2023/04/07 10:08:51;;;;;;;7.82;6.47;;;;;;;13.19;58.90;98544.72;5047727;27;103328;-58
2023/04/07 10:11:20;;;;;;;7.40;6.80;;;;;;;14.28;60.08;98537.72;5048183;27;102707;-58
2023/04/07 10:13:48;;;;;;;7.55;6.80;;;;;;;14.58;57.88;98541.25;5045848;27;104041;-57
2023/04/07 10:16:17;;;;;;;6.65;6.05;;;;;;;16.61;53.52;98526.13;5045391;27;103371;-57
2023/04/07 10:18:46;;;;;;;7.43;6.20;;;;;;;16.90;52.17;98527.69;5045817;27;103371;-57
2023/04/07 10:21:16;;;;;;;6.95;6.35;;;;;;;15.79;53.77;98527.16;5062061;27;103164;-58
2023/04/07 10:23:53;;;;;;;7.00;6.30;;;;;;;14.77;57.93;98522.63;5053423;27;102855;-57
2023/04/07 10:26:26;;;;;;;6.95;6.25;;;;;;;16.37;52.17;98519.66;5046459;27;103285;-58
2023/04/07 10:29:00;;;;;;;6.50;5.90;;;;;;;16.41;52.24;98526.38;5053221;27;103615;-58
2023/04/07 10:31:28;;;;;;;6.97;6.30;;;;;;;15.29;54.54;98522.16;5033934;27;102804;-57
2023/04/07 10:33:56;;;;;;;6.82;6.18;;;;;;;16.95;52.49;98520.91;5040035;27;103785;-58
2023/04/07 10:36:24;;;;;;;6.30;5.70;;;;;;;16.23;53.41;98529.84;5048884;27;103518;-57
2023/04/07 10:39:21;;;;;;;5.97;5.47;;;;;;;16.33;51.13;98526.28;5017827;27;103170;-57
2023/04/07 10:41:51;;;;;;;6.95;6.13;;;;;;;14.66;56.28;98528.09;5001064;27;102822;-57
2023/04/07 10:44:50;;;;;;;6.75;6.15;;;;;;;14.77;56.56;98523.47;5014172;27;103688;-58
2023/04/07 10:47:18;;;;;;;6.27;5.67;;;;;;;17.25;51.78;98516.94;4986539;27;103608;-58
2023/04/07 10:50:18;;;;;;;6.20;5.60;;;;;;;17.44;50.54;98511.38;5004954;27;103002;-58
2023/04/07 10:52:47;;;;;;;6.57;5.70;;;;;;;17.39;50.76;98505.69;4976971;27;102757;-57
2023/04/07 10:55:33;;;;;;;6.57;5.20;;;;;;;17.16;50.11;98517.88;5010970;27;103234;-57
2023/04/07 10:58:16;;;;;;;5.70;5.13;;;;;;;16.61;49.82;98517.28;5001624;27;103238;-58
2023/04/07 11:01:30;;;;;;;6.00;5.40;;;;;;;15.38;52.41;98526.56;5002590;27;103238;-58
2023/04/07 11:03:59;;;;;;;7.05;6.25;;;;;;;13.44;57.97;98537.31;4994046;27;103661;-58
2023/04/07 11:06:28;;;;;;;6.60;5.90;;;;;;;13.81;58.17;98533.16;5002494;27;103098;-58
2023/04/07 11:08:56;;;;;;;6.88;6.18;;;;;;;13.46;58.67;98538.00;4993874;27;103270;-58
2023/04/07 11:11:37;;;;;;;;;;;;;;;12.90;61.23;98543.66;4996934;27;103763;-58
2023/04/07 11:14:07;;;;;;;6.18;5.57;;;;;;;13.10;60.26;98542.84;5007930;27;103104;-58
2023/04/07 11:16:37;;;;;;;;;;;;;;;13.44;59.18;98540.81;4998516;27;103665;-58
2023/04/07 11:19:05;;;;;;;;;;;;;;;12.44;61.56;98545.78;4977104;27;104003;-57
2023/04/07 11:21:32;;;;;;;;;;;;;;;13.29;60.52;98542.97;4998560;27;103148;-58
2023/04/07 11:24:01;;;;;;;5.80;4.63;;;;;;;13.66;58.78;98537.13;5006739;27;102770;-57
2023/04/07 11:26:30;;;;;;;5.25;4.30;;;;;;;14.08;57.84;98527.19;5000153;27;102809;-57
2023/04/07 11:29:01;;;;;;;6.78;4.50;;;;;;;14.31;56.79;98532.13;5004912;27;103951;-57
2023/04/07 11:31:32;;;;;;;6.57;5.22;;;;;;;14.01;58.31;98531.38;5004020;27;104098;-58
2023/04/07 11:34:01;;;;;;;4.67;4.13;;;;;;;14.87;56.38;98527.00;5006058;27;102731;-57
2023/04/07 11:36:34;;;;;;;6.68;4.95;;;;;;;15.01;54.88;98539.00;5003727;27;104183;-57
2023/04/07 11:39:03;;;;;;;6.60;4.85;;;;;;;13.27;59.01;98538.78;5005403;27;103276;-57
2023/04/07 11:41:32;;;;;;;6.17;5.10;;;;;;;14.24;57.96;98544.28;5011936;27;103189;-57
2023/04/07 11:44:07;;;;;;;5.55;4.65;;;;;;;14.60;57.37;98549.94;5015574;27;102871;-57
2023/04/07 11:46:38;;;;;;;7.07;5.82;;;;;;;13.49;59.96;98553.69;5017306;27;103698;-58